sensor_id;sensor_type;location;lat;lon;timestamp;P1;durP1;ratioP1;P2;durP2;ratioP2
52838;SDS011;39219;53.678;9.856;2023-07-31T00:01:24;9.75;;;3.53;;
52838;SDS011;39219;53.678;9.856;2023-07-31T00:03:50;9.02;;;3.58;;
52838;SDS011;39219;53.678;9.856;2023-07-31T00:06:17;8.90;;;3.30;;
52838;SDS011;39219;53.678;9.856;2023-07-31T00:08:43;12.73;;;3.47;;
52838;SDS011;39219;53.678;9.856;2023-07-31T00:11:09;8.63;;;3.20;;
52838;SDS011;39219;53.678;9.856;2023-07-31T00:13:37;8.45;;;3.72;;
52838;SDS011;39219;53.678;9.856;2023-07-31T00:16:03;7.93;;;3.58;;
52838;SDS011;39219;53.678;9.856;2023-07-31T00:18:29;11.57;;;3.60;;
52838;SDS011;39219;53.678;9.856;2023-07-31T00:20:56;7.15;;;3.72;;
52838;SDS011;39219;53.678;9.856;2023-07-31T00:23:22;8.70;;;3.40;;
52838;SDS011;39219;53.678;9.856;2023-07-31T00:25:48;16.23;;;3.92;;
52838;SDS011;39219;53.678;9.856;2023-07-31T00:28:15;8.48;;;3.33;;
52838;SDS011;39219;53.678;9.856;2023-07-31T00:30:42;9.85;;;3.75;;
52838;SDS011;39219;53.678;9.856;2023-07-31T00:33:09;12.80;;;3.63;;
52838;SDS011;39219;53.678;9.856;2023-07-31T00:35:35;9.70;;;3.38;;
52838;SDS011;39219;53.678;9.856;2023-07-31T00:38:01;10.77;;;3.72;;
52838;SDS011;39219;53.678;9.856;2023-07-31T00:40:27;11.13;;;3.35;;
52838;SDS011;39219;53.678;9.856;2023-07-31T00:42:54;9.90;;;3.60;;
52838;SDS011;39219;53.678;9.856;2023-07-31T00:45:20;8.75;;;3.05;;
52838;SDS011;39219;53.678;9.856;2023-07-31T00:47:49;6.95;;;3.10;;
52838;SDS011;39219;53.678;9.856;2023-07-31T00:50:15;9.80;;;3.22;;
52838;SDS011;39219;53.678;9.856;2023-07-31T00:52:42;11.93;;;3.35;;
52838;SDS011;39219;53.678;9.856;2023-07-31T00:55:08;9.45;;;3.42;;
52838;SDS011;39219;53.678;9.856;2023-07-31T00:57:34;8.52;;;3.40;;
52838;SDS011;39219;53.678;9.856;2023-07-31T01:00:02;12.35;;;3.42;;
52838;SDS011;39219;53.678;9.856;2023-07-31T01:02:29;9.68;;;3.58;;
52838;SDS011;39219;53.678;9.856;2023-07-31T01:04:57;7.15;;;3.15;;
52838;SDS011;39219;53.678;9.856;2023-07-31T01:07:25;9.23;;;2.88;;
52838;SDS011;39219;53.678;9.856;2023-07-31T01:09:56;8.32;;;3.10;;
52838;SDS011;39219;53.678;9.856;2023-07-31T01:12:25;10.93;;;3.20;;
52838;SDS011;39219;53.678;9.856;2023-07-31T01:15:01;11.20;;;3.63;;
52838;SDS011;39219;53.678;9.856;2023-07-31T01:17:28;10.20;;;3.60;;
52838;SDS011;39219;53.678;9.856;2023-07-31T01:19:54;9.43;;;3.60;;
52838;SDS011;39219;53.678;9.856;2023-07-31T01:22:27;9.75;;;3.40;;
52838;SDS011;39219;53.678;9.856;2023-07-31T01:24:57;11.43;;;3.65;;
52838;SDS011;39219;53.678;9.856;2023-07-31T01:27:27;7.40;;;3.40;;
52838;SDS011;39219;53.678;9.856;2023-07-31T01:29:56;8.82;;;3.40;;
52838;SDS011;39219;53.678;9.856;2023-07-31T01:32:25;10.63;;;3.85;;
52838;SDS011;39219;53.678;9.856;2023-07-31T01:34:54;9.75;;;3.63;;
52838;SDS011;39219;53.678;9.856;2023-07-31T01:37:21;10.32;;;3.70;;
52838;SDS011;39219;53.678;9.856;2023-07-31T01:39:47;12.40;;;3.97;;
52838;SDS011;39219;53.678;9.856;2023-07-31T01:42:14;10.85;;;3.45;;
52838;SDS011;39219;53.678;9.856;2023-07-31T01:44:41;10.07;;;3.60;;
52838;SDS011;39219;53.678;9.856;2023-07-31T01:47:08;13.70;;;3.80;;
52838;SDS011;39219;53.678;9.856;2023-07-31T01:49:34;12.48;;;4.30;;
52838;SDS011;39219;53.678;9.856;2023-07-31T01:52:00;10.20;;;4.20;;
52838;SDS011;39219;53.678;9.856;2023-07-31T01:54:26;13.57;;;4.32;;
52838;SDS011;39219;53.678;9.856;2023-07-31T01:56:53;9.40;;;3.95;;
52838;SDS011;39219;53.678;9.856;2023-07-31T01:59:19;7.85;;;3.65;;
52838;SDS011;39219;53.678;9.856;2023-07-31T02:01:46;12.02;;;4.00;;
52838;SDS011;39219;53.678;9.856;2023-07-31T02:04:13;13.38;;;4.35;;
52838;SDS011;39219;53.678;9.856;2023-07-31T02:06:39;15.82;;;4.60;;
52838;SDS011;39219;53.678;9.856;2023-07-31T02:09:05;10.82;;;4.25;;
52838;SDS011;39219;53.678;9.856;2023-07-31T02:11:32;10.13;;;4.28;;
52838;SDS011;39219;53.678;9.856;2023-07-31T02:13:58;8.57;;;4.10;;
52838;SDS011;39219;53.678;9.856;2023-07-31T02:16:24;10.63;;;4.10;;
52838;SDS011;39219;53.678;9.856;2023-07-31T02:18:52;13.93;;;4.38;;
52838;SDS011;39219;53.678;9.856;2023-07-31T02:21:18;14.02;;;4.28;;
52838;SDS011;39219;53.678;9.856;2023-07-31T02:23:44;10.00;;;4.32;;
52838;SDS011;39219;53.678;9.856;2023-07-31T02:26:10;11.82;;;4.30;;
52838;SDS011;39219;53.678;9.856;2023-07-31T02:28:37;9.75;;;3.95;;
52838;SDS011;39219;53.678;9.856;2023-07-31T02:31:03;9.48;;;4.03;;
52838;SDS011;39219;53.678;9.856;2023-07-31T02:33:29;14.10;;;4.68;;
52838;SDS011;39219;53.678;9.856;2023-07-31T02:35:57;13.35;;;4.50;;
52838;SDS011;39219;53.678;9.856;2023-07-31T02:38:23;10.88;;;4.47;;
52838;SDS011;39219;53.678;9.856;2023-07-31T02:40:49;8.88;;;4.28;;
52838;SDS011;39219;53.678;9.856;2023-07-31T02:43:16;11.45;;;4.45;;
52838;SDS011;39219;53.678;9.856;2023-07-31T02:45:42;10.15;;;4.47;;
52838;SDS011;39219;53.678;9.856;2023-07-31T02:48:08;9.55;;;4.43;;
52838;SDS011;39219;53.678;9.856;2023-07-31T02:50:34;11.27;;;4.60;;
52838;SDS011;39219;53.678;9.856;2023-07-31T02:53:02;9.75;;;4.07;;
52838;SDS011;39219;53.678;9.856;2023-07-31T02:55:28;10.93;;;4.05;;
52838;SDS011;39219;53.678;9.856;2023-07-31T02:57:55;15.00;;;4.90;;
52838;SDS011;39219;53.678;9.856;2023-07-31T03:00:21;11.20;;;4.35;;
52838;SDS011;39219;53.678;9.856;2023-07-31T03:02:47;10.77;;;4.65;;
52838;SDS011;39219;53.678;9.856;2023-07-31T03:05:13;12.15;;;4.43;;
52838;SDS011;39219;53.678;9.856;2023-07-31T03:07:40;11.23;;;4.28;;
52838;SDS011;39219;53.678;9.856;2023-07-31T03:10:08;12.18;;;4.80;;
52838;SDS011;39219;53.678;9.856;2023-07-31T03:12:34;12.60;;;5.22;;
52838;SDS011;39219;53.678;9.856;2023-07-31T03:15:00;9.82;;;4.40;;
52838;SDS011;39219;53.678;9.856;2023-07-31T03:17:27;11.88;;;4.82;;
52838;SDS011;39219;53.678;9.856;2023-07-31T03:19:53;11.98;;;5.05;;
52838;SDS011;39219;53.678;9.856;2023-07-31T03:22:19;10.88;;;4.50;;
52838;SDS011;39219;53.678;9.856;2023-07-31T03:24:45;10.95;;;4.88;;
52838;SDS011;39219;53.678;9.856;2023-07-31T03:27:13;11.25;;;4.80;;
52838;SDS011;39219;53.678;9.856;2023-07-31T03:29:39;9.35;;;4.70;;
52838;SDS011;39219;53.678;9.856;2023-07-31T03:32:06;10.48;;;4.38;;
52838;SDS011;39219;53.678;9.856;2023-07-31T03:34:32;12.30;;;4.75;;
52838;SDS011;39219;53.678;9.856;2023-07-31T03:36:59;10.43;;;4.75;;
52838;SDS011;39219;53.678;9.856;2023-07-31T03:39:25;12.45;;;4.85;;
52838;SDS011;39219;53.678;9.856;2023-07-31T03:41:51;12.20;;;4.70;;
52838;SDS011;39219;53.678;9.856;2023-07-31T03:44:19;10.70;;;4.95;;
52838;SDS011;39219;53.678;9.856;2023-07-31T03:46:45;11.32;;;4.55;;
52838;SDS011;39219;53.678;9.856;2023-07-31T03:49:11;13.05;;;4.90;;
52838;SDS011;39219;53.678;9.856;2023-07-31T03:51:38;7.95;;;4.47;;
52838;SDS011;39219;53.678;9.856;2023-07-31T03:54:04;10.80;;;5.18;;
52838;SDS011;39219;53.678;9.856;2023-07-31T03:56:30;8.57;;;4.65;;
52838;SDS011;39219;53.678;9.856;2023-07-31T03:58:56;8.77;;;4.43;;
52838;SDS011;39219;53.678;9.856;2023-07-31T04:01:24;8.80;;;4.72;;
52838;SDS011;39219;53.678;9.856;2023-07-31T04:03:50;8.98;;;4.35;;
52838;SDS011;39219;53.678;9.856;2023-07-31T04:06:17;8.82;;;4.63;;
52838;SDS011;39219;53.678;9.856;2023-07-31T04:08:43;8.63;;;4.53;;
52838;SDS011;39219;53.678;9.856;2023-07-31T04:11:10;9.55;;;4.50;;
52838;SDS011;39219;53.678;9.856;2023-07-31T04:13:36;11.07;;;4.70;;
52838;SDS011;39219;53.678;9.856;2023-07-31T04:16:02;10.50;;;4.57;;
52838;SDS011;39219;53.678;9.856;2023-07-31T04:18:30;8.82;;;4.57;;
52838;SDS011;39219;53.678;9.856;2023-07-31T04:20:57;8.82;;;4.70;;
52838;SDS011;39219;53.678;9.856;2023-07-31T04:23:24;8.70;;;4.43;;
52838;SDS011;39219;53.678;9.856;2023-07-31T04:25:50;11.27;;;4.57;;
52838;SDS011;39219;53.678;9.856;2023-07-31T04:28:16;8.35;;;4.65;;
52838;SDS011;39219;53.678;9.856;2023-07-31T04:30:43;12.25;;;4.75;;
52838;SDS011;39219;53.678;9.856;2023-07-31T04:33:09;8.32;;;4.78;;
52838;SDS011;39219;53.678;9.856;2023-07-31T04:35:37;9.32;;;4.72;;
52838;SDS011;39219;53.678;9.856;2023-07-31T04:38:03;10.13;;;5.07;;
52838;SDS011;39219;53.678;9.856;2023-07-31T04:40:29;8.23;;;4.82;;
52838;SDS011;39219;53.678;9.856;2023-07-31T04:42:56;8.93;;;4.75;;
52838;SDS011;39219;53.678;9.856;2023-07-31T04:45:22;10.40;;;4.70;;
52838;SDS011;39219;53.678;9.856;2023-07-31T04:47:48;10.48;;;4.90;;
52838;SDS011;39219;53.678;9.856;2023-07-31T04:50:15;8.30;;;4.63;;
52838;SDS011;39219;53.678;9.856;2023-07-31T04:52:42;8.52;;;4.38;;
52838;SDS011;39219;53.678;9.856;2023-07-31T04:55:08;8.77;;;4.53;;
52838;SDS011;39219;53.678;9.856;2023-07-31T04:57:35;8.10;;;4.88;;
52838;SDS011;39219;53.678;9.856;2023-07-31T05:00:00;6.90;;;4.38;;
52838;SDS011;39219;53.678;9.856;2023-07-31T05:02:26;8.50;;;4.55;;
52838;SDS011;39219;53.678;9.856;2023-07-31T05:04:52;7.65;;;4.72;;
52838;SDS011;39219;53.678;9.856;2023-07-31T05:07:19;8.27;;;4.40;;
52838;SDS011;39219;53.678;9.856;2023-07-31T05:09:47;8.18;;;4.55;;
52838;SDS011;39219;53.678;9.856;2023-07-31T05:12:13;7.25;;;4.68;;
52838;SDS011;39219;53.678;9.856;2023-07-31T05:14:39;8.18;;;4.60;;
52838;SDS011;39219;53.678;9.856;2023-07-31T05:17:05;7.65;;;4.25;;
52838;SDS011;39219;53.678;9.856;2023-07-31T05:19:32;5.60;;;3.95;;
52838;SDS011;39219;53.678;9.856;2023-07-31T05:21:58;7.97;;;4.30;;
52838;SDS011;39219;53.678;9.856;2023-07-31T05:24:24;6.85;;;4.40;;
52838;SDS011;39219;53.678;9.856;2023-07-31T05:26:52;8.70;;;4.50;;
52838;SDS011;39219;53.678;9.856;2023-07-31T05:29:18;7.18;;;4.45;;
52838;SDS011;39219;53.678;9.856;2023-07-31T05:31:44;6.88;;;4.38;;
52838;SDS011;39219;53.678;9.856;2023-07-31T05:34:11;7.07;;;4.50;;
52838;SDS011;39219;53.678;9.856;2023-07-31T05:36:37;8.52;;;4.88;;
52838;SDS011;39219;53.678;9.856;2023-07-31T05:39:03;6.60;;;4.18;;
52838;SDS011;39219;53.678;9.856;2023-07-31T05:41:33;8.32;;;4.85;;
52838;SDS011;39219;53.678;9.856;2023-07-31T05:44:01;7.90;;;4.65;;
52838;SDS011;39219;53.678;9.856;2023-07-31T05:46:27;6.80;;;4.40;;
52838;SDS011;39219;53.678;9.856;2023-07-31T05:48:53;7.15;;;4.20;;
52838;SDS011;39219;53.678;9.856;2023-07-31T05:51:19;7.55;;;4.20;;
52838;SDS011;39219;53.678;9.856;2023-07-31T05:53:46;6.47;;;4.13;;
52838;SDS011;39219;53.678;9.856;2023-07-31T05:56:12;6.00;;;4.00;;
52838;SDS011;39219;53.678;9.856;2023-07-31T05:58:38;6.13;;;3.88;;
52838;SDS011;39219;53.678;9.856;2023-07-31T06:01:06;5.53;;;3.70;;
52838;SDS011;39219;53.678;9.856;2023-07-31T06:03:32;5.72;;;3.78;;
52838;SDS011;39219;53.678;9.856;2023-07-31T06:05:58;6.15;;;3.90;;
52838;SDS011;39219;53.678;9.856;2023-07-31T06:08:25;6.35;;;4.18;;
52838;SDS011;39219;53.678;9.856;2023-07-31T06:10:51;5.22;;;3.80;;
52838;SDS011;39219;53.678;9.856;2023-07-31T06:13:17;7.00;;;3.63;;
52838;SDS011;39219;53.678;9.856;2023-07-31T06:15:44;5.97;;;3.60;;
52838;SDS011;39219;53.678;9.856;2023-07-31T06:18:11;5.78;;;3.47;;
52838;SDS011;39219;53.678;9.856;2023-07-31T06:20:37;5.70;;;3.70;;
52838;SDS011;39219;53.678;9.856;2023-07-31T06:23:05;4.75;;;3.20;;
52838;SDS011;39219;53.678;9.856;2023-07-31T06:25:31;5.40;;;3.67;;
52838;SDS011;39219;53.678;9.856;2023-07-31T06:27:58;4.75;;;3.05;;
52838;SDS011;39219;53.678;9.856;2023-07-31T06:30:24;4.28;;;3.20;;
52838;SDS011;39219;53.678;9.856;2023-07-31T06:32:50;5.13;;;3.33;;
52838;SDS011;39219;53.678;9.856;2023-07-31T06:35:18;5.25;;;3.28;;
52838;SDS011;39219;53.678;9.856;2023-07-31T06:37:44;4.78;;;3.20;;
52838;SDS011;39219;53.678;9.856;2023-07-31T06:40:11;4.65;;;3.38;;
52838;SDS011;39219;53.678;9.856;2023-07-31T06:42:37;4.68;;;3.33;;
52838;SDS011;39219;53.678;9.856;2023-07-31T06:45:03;4.90;;;3.50;;
52838;SDS011;39219;53.678;9.856;2023-07-31T06:47:30;5.15;;;3.20;;
52838;SDS011;39219;53.678;9.856;2023-07-31T06:49:57;4.43;;;3.45;;
52838;SDS011;39219;53.678;9.856;2023-07-31T06:52:24;4.60;;;3.42;;
52838;SDS011;39219;53.678;9.856;2023-07-31T06:55:00;4.20;;;2.97;;
52838;SDS011;39219;53.678;9.856;2023-07-31T06:57:26;5.05;;;3.45;;
52838;SDS011;39219;53.678;9.856;2023-07-31T06:59:53;5.00;;;3.03;;
52838;SDS011;39219;53.678;9.856;2023-07-31T07:02:19;4.63;;;3.20;;
52838;SDS011;39219;53.678;9.856;2023-07-31T07:04:45;5.32;;;3.60;;
52838;SDS011;39219;53.678;9.856;2023-07-31T07:07:11;5.18;;;3.20;;
52838;SDS011;39219;53.678;9.856;2023-07-31T07:09:39;5.95;;;3.58;;
52838;SDS011;39219;53.678;9.856;2023-07-31T07:12:06;5.43;;;3.88;;
52838;SDS011;39219;53.678;9.856;2023-07-31T07:14:32;5.45;;;3.72;;
52838;SDS011;39219;53.678;9.856;2023-07-31T07:16:58;5.10;;;3.58;;
52838;SDS011;39219;53.678;9.856;2023-07-31T07:19:25;5.50;;;3.60;;
52838;SDS011;39219;53.678;9.856;2023-07-31T07:21:51;5.80;;;3.70;;
52838;SDS011;39219;53.678;9.856;2023-07-31T07:24:17;5.55;;;3.88;;
52838;SDS011;39219;53.678;9.856;2023-07-31T07:26:45;6.45;;;3.92;;
52838;SDS011;39219;53.678;9.856;2023-07-31T07:29:11;5.72;;;3.88;;
52838;SDS011;39219;53.678;9.856;2023-07-31T07:31:38;7.07;;;4.05;;
52838;SDS011;39219;53.678;9.856;2023-07-31T07:34:04;5.80;;;3.75;;
52838;SDS011;39219;53.678;9.856;2023-07-31T07:36:30;5.40;;;3.58;;
52838;SDS011;39219;53.678;9.856;2023-07-31T07:38:58;4.90;;;3.40;;
52838;SDS011;39219;53.678;9.856;2023-07-31T07:41:26;4.25;;;3.05;;
52838;SDS011;39219;53.678;9.856;2023-07-31T07:43:54;5.20;;;3.50;;
52838;SDS011;39219;53.678;9.856;2023-07-31T07:46:20;5.38;;;3.45;;
52838;SDS011;39219;53.678;9.856;2023-07-31T07:48:47;5.53;;;3.47;;
52838;SDS011;39219;53.678;9.856;2023-07-31T07:51:13;5.47;;;3.47;;
52838;SDS011;39219;53.678;9.856;2023-07-31T07:53:39;6.60;;;3.78;;
52838;SDS011;39219;53.678;9.856;2023-07-31T07:56:06;5.45;;;3.70;;
52838;SDS011;39219;53.678;9.856;2023-07-31T07:58:32;5.63;;;3.70;;
52838;SDS011;39219;53.678;9.856;2023-07-31T08:00:59;5.72;;;3.65;;
52838;SDS011;39219;53.678;9.856;2023-07-31T08:03:26;5.57;;;4.03;;
52838;SDS011;39219;53.678;9.856;2023-07-31T08:05:52;6.50;;;3.90;;
52838;SDS011;39219;53.678;9.856;2023-07-31T08:08:18;4.93;;;3.50;;
52838;SDS011;39219;53.678;9.856;2023-07-31T08:10:45;5.28;;;3.80;;
52838;SDS011;39219;53.678;9.856;2023-07-31T08:13:11;6.90;;;3.80;;
52838;SDS011;39219;53.678;9.856;2023-07-31T08:15:37;5.28;;;3.65;;
52838;SDS011;39219;53.678;9.856;2023-07-31T08:18:05;6.72;;;3.80;;
52838;SDS011;39219;53.678;9.856;2023-07-31T08:20:31;5.85;;;3.50;;
52838;SDS011;39219;53.678;9.856;2023-07-31T08:22:58;4.53;;;3.45;;
52838;SDS011;39219;53.678;9.856;2023-07-31T08:25:24;4.55;;;3.20;;
52838;SDS011;39219;53.678;9.856;2023-07-31T08:27:50;4.53;;;3.53;;
52838;SDS011;39219;53.678;9.856;2023-07-31T08:30:17;6.20;;;3.25;;
52838;SDS011;39219;53.678;9.856;2023-07-31T08:32:44;3.90;;;3.03;;
52838;SDS011;39219;53.678;9.856;2023-07-31T08:35:12;4.47;;;3.30;;
52838;SDS011;39219;53.678;9.856;2023-07-31T08:37:38;4.97;;;3.45;;
52838;SDS011;39219;53.678;9.856;2023-07-31T08:40:05;3.53;;;3.00;;
52838;SDS011;39219;53.678;9.856;2023-07-31T08:42:31;3.47;;;3.00;;
52838;SDS011;39219;53.678;9.856;2023-07-31T08:44:58;4.18;;;2.95;;
52838;SDS011;39219;53.678;9.856;2023-07-31T08:47:25;3.67;;;3.00;;
52838;SDS011;39219;53.678;9.856;2023-07-31T08:49:52;4.05;;;3.00;;
52838;SDS011;39219;53.678;9.856;2023-07-31T08:52:20;4.03;;;2.35;;
52838;SDS011;39219;53.678;9.856;2023-07-31T08:54:46;3.58;;;2.65;;
52838;SDS011;39219;53.678;9.856;2023-07-31T08:57:12;3.80;;;2.65;;
52838;SDS011;39219;53.678;9.856;2023-07-31T08:59:39;2.60;;;2.40;;
52838;SDS011;39219;53.678;9.856;2023-07-31T09:02:07;2.92;;;2.35;;
52838;SDS011;39219;53.678;9.856;2023-07-31T09:04:34;2.63;;;2.25;;
52838;SDS011;39219;53.678;9.856;2023-07-31T09:07:01;2.88;;;2.47;;
52838;SDS011;39219;53.678;9.856;2023-07-31T09:09:29;2.60;;;2.10;;
52838;SDS011;39219;53.678;9.856;2023-07-31T09:11:56;2.67;;;2.22;;
52838;SDS011;39219;53.678;9.856;2023-07-31T09:14:23;2.35;;;2.13;;
52838;SDS011;39219;53.678;9.856;2023-07-31T09:16:53;2.38;;;2.00;;
52838;SDS011;39219;53.678;9.856;2023-07-31T09:19:26;2.50;;;2.30;;
52838;SDS011;39219;53.678;9.856;2023-07-31T09:21:53;2.72;;;2.05;;
52838;SDS011;39219;53.678;9.856;2023-07-31T09:24:24;2.40;;;2.20;;
52838;SDS011;39219;53.678;9.856;2023-07-31T09:26:52;1.70;;;1.60;;
52838;SDS011;39219;53.678;9.856;2023-07-31T09:29:19;2.55;;;2.20;;
52838;SDS011;39219;53.678;9.856;2023-07-31T09:31:46;3.00;;;1.80;;
52838;SDS011;39219;53.678;9.856;2023-07-31T09:34:12;2.33;;;1.80;;
52838;SDS011;39219;53.678;9.856;2023-07-31T09:36:42;2.10;;;1.65;;
52838;SDS011;39219;53.678;9.856;2023-07-31T09:39:09;2.95;;;1.77;;
52838;SDS011;39219;53.678;9.856;2023-07-31T09:41:36;3.30;;;1.80;;
52838;SDS011;39219;53.678;9.856;2023-07-31T09:44:04;1.67;;;1.30;;
52838;SDS011;39219;53.678;9.856;2023-07-31T09:46:30;2.17;;;1.98;;
52838;SDS011;39219;53.678;9.856;2023-07-31T09:49:03;3.08;;;1.70;;
52838;SDS011;39219;53.678;9.856;2023-07-31T09:51:29;1.67;;;1.30;;
52838;SDS011;39219;53.678;9.856;2023-07-31T09:53:56;1.55;;;1.30;;
52838;SDS011;39219;53.678;9.856;2023-07-31T09:56:22;1.38;;;1.15;;
52838;SDS011;39219;53.678;9.856;2023-07-31T09:58:49;1.83;;;1.33;;
52838;SDS011;39219;53.678;9.856;2023-07-31T10:01:17;1.30;;;1.20;;
52838;SDS011;39219;53.678;9.856;2023-07-31T10:03:43;1.45;;;1.27;;
52838;SDS011;39219;53.678;9.856;2023-07-31T10:06:11;1.08;;;0.95;;
52838;SDS011;39219;53.678;9.856;2023-07-31T10:08:38;1.20;;;1.10;;
52838;SDS011;39219;53.678;9.856;2023-07-31T10:11:05;2.85;;;1.40;;
52838;SDS011;39219;53.678;9.856;2023-07-31T10:13:35;2.10;;;1.20;;
52838;SDS011;39219;53.678;9.856;2023-07-31T10:16:02;1.75;;;1.35;;
52838;SDS011;39219;53.678;9.856;2023-07-31T10:18:30;1.92;;;1.20;;
52838;SDS011;39219;53.678;9.856;2023-07-31T10:20:56;1.55;;;1.00;;
52838;SDS011;39219;53.678;9.856;2023-07-31T10:23:23;1.33;;;1.02;;
52838;SDS011;39219;53.678;9.856;2023-07-31T10:25:50;1.77;;;1.17;;
52838;SDS011;39219;53.678;9.856;2023-07-31T10:28:18;1.10;;;1.00;;
52838;SDS011;39219;53.678;9.856;2023-07-31T10:30:45;1.17;;;1.08;;
52838;SDS011;39219;53.678;9.856;2023-07-31T10:33:11;2.97;;;1.52;;
52838;SDS011;39219;53.678;9.856;2023-07-31T10:35:39;2.80;;;1.60;;
52838;SDS011;39219;53.678;9.856;2023-07-31T10:38:09;2.47;;;1.50;;
52838;SDS011;39219;53.678;9.856;2023-07-31T10:40:35;1.92;;;1.35;;
52838;SDS011;39219;53.678;9.856;2023-07-31T10:43:02;2.92;;;1.50;;
52838;SDS011;39219;53.678;9.856;2023-07-31T10:45:30;1.98;;;1.50;;
52838;SDS011;39219;53.678;9.856;2023-07-31T10:47:58;1.38;;;0.90;;
52838;SDS011;39219;53.678;9.856;2023-07-31T10:50:26;2.33;;;1.30;;
52838;SDS011;39219;53.678;9.856;2023-07-31T10:52:54;2.67;;;1.35;;
52838;SDS011;39219;53.678;9.856;2023-07-31T10:55:30;1.55;;;1.40;;
52838;SDS011;39219;53.678;9.856;2023-07-31T10:57:57;3.17;;;1.58;;
52838;SDS011;39219;53.678;9.856;2023-07-31T11:00:25;2.78;;;1.58;;
52838;SDS011;39219;53.678;9.856;2023-07-31T11:02:58;1.80;;;1.10;;
52838;SDS011;39219;53.678;9.856;2023-07-31T11:08:11;0.73;;;0.65;;
52838;SDS011;39219;53.678;9.856;2023-07-31T11:10:37;0.70;;;0.70;;
52838;SDS011;39219;53.678;9.856;2023-07-31T11:13:03;1.50;;;0.80;;
52838;SDS011;39219;53.678;9.856;2023-07-31T11:15:30;0.80;;;0.80;;
52838;SDS011;39219;53.678;9.856;2023-07-31T11:17:56;1.20;;;0.75;;
52838;SDS011;39219;53.678;9.856;2023-07-31T11:20:23;1.35;;;0.80;;
52838;SDS011;39219;53.678;9.856;2023-07-31T11:22:49;1.33;;;0.88;;
52838;SDS011;39219;53.678;9.856;2023-07-31T11:25:17;1.17;;;0.90;;
52838;SDS011;39219;53.678;9.856;2023-07-31T11:27:43;1.15;;;0.90;;
52838;SDS011;39219;53.678;9.856;2023-07-31T11:30:10;1.15;;;0.73;;
52838;SDS011;39219;53.678;9.856;2023-07-31T11:32:37;1.17;;;0.90;;
52838;SDS011;39219;53.678;9.856;2023-07-31T11:35:03;0.80;;;0.80;;
52838;SDS011;39219;53.678;9.856;2023-07-31T11:37:38;1.10;;;0.73;;
52838;SDS011;39219;53.678;9.856;2023-07-31T11:40:05;0.98;;;0.80;;
52838;SDS011;39219;53.678;9.856;2023-07-31T11:42:33;1.55;;;0.75;;
52838;SDS011;39219;53.678;9.856;2023-07-31T11:45:01;0.75;;;0.60;;
52838;SDS011;39219;53.678;9.856;2023-07-31T11:47:28;0.75;;;0.63;;
52838;SDS011;39219;53.678;9.856;2023-07-31T11:49:55;1.13;;;0.70;;
52838;SDS011;39219;53.678;9.856;2023-07-31T11:52:22;2.15;;;0.80;;
52838;SDS011;39219;53.678;9.856;2023-07-31T11:54:48;1.95;;;0.70;;
52838;SDS011;39219;53.678;9.856;2023-07-31T11:57:15;2.03;;;0.70;;
52838;SDS011;39219;53.678;9.856;2023-07-31T11:59:43;1.52;;;0.80;;
52838;SDS011;39219;53.678;9.856;2023-07-31T12:02:09;1.45;;;0.85;;
52838;SDS011;39219;53.678;9.856;2023-07-31T12:04:36;0.95;;;0.70;;
52838;SDS011;39219;53.678;9.856;2023-07-31T12:07:03;1.85;;;0.95;;
52838;SDS011;39219;53.678;9.856;2023-07-31T12:09:30;0.80;;;0.60;;
52838;SDS011;39219;53.678;9.856;2023-07-31T12:11:56;2.05;;;0.77;;
52838;SDS011;39219;53.678;9.856;2023-07-31T12:14:23;0.75;;;0.65;;
52838;SDS011;39219;53.678;9.856;2023-07-31T12:16:54;0.65;;;0.60;;
52838;SDS011;39219;53.678;9.856;2023-07-31T12:19:20;1.48;;;0.90;;
52838;SDS011;39219;53.678;9.856;2023-07-31T12:21:47;0.73;;;0.73;;
52838;SDS011;39219;53.678;9.856;2023-07-31T12:24:13;1.33;;;0.70;;
52838;SDS011;39219;53.678;9.856;2023-07-31T12:26:39;1.15;;;0.80;;
52838;SDS011;39219;53.678;9.856;2023-07-31T12:29:06;1.70;;;0.70;;
52838;SDS011;39219;53.678;9.856;2023-07-31T12:31:33;0.60;;;0.60;;
52838;SDS011;39219;53.678;9.856;2023-07-31T12:34:01;0.75;;;0.55;;
52838;SDS011;39219;53.678;9.856;2023-07-31T12:36:28;0.50;;;0.50;;
52838;SDS011;39219;53.678;9.856;2023-07-31T12:38:55;1.83;;;0.95;;
52838;SDS011;39219;53.678;9.856;2023-07-31T12:41:23;0.93;;;0.60;;
52838;SDS011;39219;53.678;9.856;2023-07-31T12:43:49;0.60;;;0.60;;
52838;SDS011;39219;53.678;9.856;2023-07-31T12:46:16;1.13;;;0.55;;
52838;SDS011;39219;53.678;9.856;2023-07-31T12:48:42;1.00;;;0.60;;
52838;SDS011;39219;53.678;9.856;2023-07-31T12:51:10;1.00;;;0.60;;
52838;SDS011;39219;53.678;9.856;2023-07-31T12:53:36;1.67;;;0.98;;
52838;SDS011;39219;53.678;9.856;2023-07-31T12:56:03;0.85;;;0.80;;
52838;SDS011;39219;53.678;9.856;2023-07-31T12:58:29;1.00;;;0.70;;
52838;SDS011;39219;53.678;9.856;2023-07-31T13:00:55;0.80;;;0.70;;
52838;SDS011;39219;53.678;9.856;2023-07-31T13:03:22;1.20;;;0.80;;
52838;SDS011;39219;53.678;9.856;2023-07-31T13:05:48;1.88;;;0.82;;
52838;SDS011;39219;53.678;9.856;2023-07-31T13:08:16;0.50;;;0.50;;
52838;SDS011;39219;53.678;9.856;2023-07-31T13:10:42;1.10;;;0.60;;
52838;SDS011;39219;53.678;9.856;2023-07-31T13:13:09;1.15;;;0.70;;
52838;SDS011;39219;53.678;9.856;2023-07-31T13:15:35;1.30;;;1.00;;
52838;SDS011;39219;53.678;9.856;2023-07-31T13:18:01;1.17;;;0.77;;
52838;SDS011;39219;53.678;9.856;2023-07-31T13:20:27;1.65;;;0.93;;
52838;SDS011;39219;53.678;9.856;2023-07-31T13:22:54;1.33;;;1.00;;
52838;SDS011;39219;53.678;9.856;2023-07-31T13:25:21;0.85;;;0.82;;
52838;SDS011;39219;53.678;9.856;2023-07-31T13:27:48;0.88;;;0.80;;
52838;SDS011;39219;53.678;9.856;2023-07-31T13:30:14;1.38;;;0.90;;
52838;SDS011;39219;53.678;9.856;2023-07-31T13:32:40;1.13;;;0.73;;
52838;SDS011;39219;53.678;9.856;2023-07-31T13:35:07;1.02;;;0.70;;
52838;SDS011;39219;53.678;9.856;2023-07-31T13:37:34;1.63;;;0.82;;
52838;SDS011;39219;53.678;9.856;2023-07-31T13:40:00;1.35;;;0.85;;
52838;SDS011;39219;53.678;9.856;2023-07-31T13:42:30;0.93;;;0.80;;
52838;SDS011;39219;53.678;9.856;2023-07-31T13:44:57;1.75;;;0.73;;
52838;SDS011;39219;53.678;9.856;2023-07-31T13:47:23;1.23;;;0.85;;
52838;SDS011;39219;53.678;9.856;2023-07-31T13:49:49;1.20;;;1.10;;
52838;SDS011;39219;53.678;9.856;2023-07-31T13:52:16;1.23;;;0.90;;
52838;SDS011;39219;53.678;9.856;2023-07-31T13:54:42;0.88;;;0.80;;
52838;SDS011;39219;53.678;9.856;2023-07-31T13:57:08;2.00;;;0.93;;
52838;SDS011;39219;53.678;9.856;2023-07-31T13:59:36;1.55;;;0.82;;
52838;SDS011;39219;53.678;9.856;2023-07-31T14:02:02;1.48;;;0.90;;
52838;SDS011;39219;53.678;9.856;2023-07-31T14:04:29;1.45;;;0.80;;
52838;SDS011;39219;53.678;9.856;2023-07-31T14:06:55;0.80;;;0.80;;
52838;SDS011;39219;53.678;9.856;2023-07-31T14:09:21;1.35;;;0.90;;
52838;SDS011;39219;53.678;9.856;2023-07-31T14:11:48;0.50;;;0.50;;
52838;SDS011;39219;53.678;9.856;2023-07-31T14:14:14;0.57;;;0.55;;
52838;SDS011;39219;53.678;9.856;2023-07-31T14:16:42;2.08;;;0.80;;
52838;SDS011;39219;53.678;9.856;2023-07-31T14:19:08;0.85;;;0.50;;
52838;SDS011;39219;53.678;9.856;2023-07-31T14:21:34;0.60;;;0.57;;
52838;SDS011;39219;53.678;9.856;2023-07-31T14:24:01;0.52;;;0.52;;
52838;SDS011;39219;53.678;9.856;2023-07-31T14:26:27;1.60;;;0.80;;
52838;SDS011;39219;53.678;9.856;2023-07-31T14:28:53;1.05;;;0.50;;
52838;SDS011;39219;53.678;9.856;2023-07-31T14:31:19;0.70;;;0.55;;
52838;SDS011;39219;53.678;9.856;2023-07-31T14:33:47;0.82;;;0.70;;
52838;SDS011;39219;53.678;9.856;2023-07-31T14:36:13;2.88;;;0.90;;
52838;SDS011;39219;53.678;9.856;2023-07-31T14:38:40;0.65;;;0.50;;
52838;SDS011;39219;53.678;9.856;2023-07-31T14:41:06;1.00;;;0.70;;
52838;SDS011;39219;53.678;9.856;2023-07-31T14:43:32;1.73;;;0.85;;
52838;SDS011;39219;53.678;9.856;2023-07-31T14:45:58;0.90;;;0.68;;